Time;durP1;ratioP1;P1;durP2;ratioP2;P2;SDS_P1;SDS_P2;PMS_P1;PMS_P2;Temp;Humidity;BMP_temperature;BMP_pressure;BME280_temperature;BME280_humidity;BME280_pressure;Samples;Min_cycle;Max_cycle;Signal;HPM_P1;HPM_P2
2022/06/25 00:01:29;;;;;;;17.83;11.97;;;19.40;99.90;;;;;;5091408;28;20988;-50
2022/06/25 00:03:56;;;;;;;13.47;12.10;;;19.40;99.90;;;;;;5083654;28;20567;-49
2022/06/25 00:06:23;;;;;;;13.20;11.73;;;19.40;99.90;;;;;;5092022;28;20488;-50
2022/06/25 00:08:50;;;;;;;15.13;12.80;;;19.40;99.90;;;;;;5088374;28;20491;-49
2022/06/25 00:14:05;;;;;;;16.03;13.70;;;19.40;99.90;;;;;;5081561;28;20983;-49
2022/06/25 00:16:32;;;;;;;17.17;15.40;;;19.40;99.90;;;;;;5088790;28;20980;-49
2022/06/25 00:18:59;;;;;;;14.20;12.80;;;19.40;99.90;;;;;;5086162;28;20491;-49
2022/06/25 00:21:25;;;;;;;13.30;11.80;;;19.40;99.90;;;;;;5081643;28;20960;-51
2022/06/25 00:23:52;;;;;;;13.50;12.10;;;19.40;99.90;;;;;;5081164;28;21013;-50
2022/06/25 00:26:20;;;;;;;12.93;11.70;;;19.40;99.90;;;;;;5086782;28;20550;-49
2022/06/25 00:28:47;;;;;;;14.83;11.50;;;19.40;99.90;;;;;;5088746;28;20457;-49
2022/06/25 00:31:13;;;;;;;14.23;12.47;;;19.40;99.90;;;;;;5087313;28;20491;-50
2022/06/25 00:33:40;;;;;;;14.10;12.00;;;19.40;99.90;;;;;;5085441;28;20520;-50
2022/06/25 00:36:06;;;;;;;12.47;11.27;;;19.40;99.90;;;;;;5089322;28;20547;-50
2022/06/25 00:38:33;;;;;;;13.17;11.97;;;19.40;99.90;;;;;;5090119;28;20547;-50
2022/06/25 00:40:59;;;;;;;29.13;12.33;;;19.30;99.90;;;;;;5088689;28;20533;-50
2022/06/25 00:43:27;;;;;;;14.00;12.60;;;19.40;99.90;;;;;;5084729;28;20516;-50
2022/06/25 00:45:54;;;;;;;12.97;11.67;;;19.40;99.90;;;;;;5083020;28;20510;-49
2022/06/25 00:48:20;;;;;;;19.23;13.90;;;19.30;99.90;;;;;;5088469;28;20484;-49
2022/06/25 00:50:47;;;;;;;14.80;12.97;;;19.30;99.90;;;;;;5087056;28;20484;-49
2022/06/25 00:53:16;;;;;;;16.37;12.60;;;19.30;99.90;;;;;;5089950;28;20491;-49
2022/06/25 00:55:45;;;;;;;14.50;13.20;;;19.30;99.90;;;;;;5085813;28;20879;-50
2022/06/25 00:58:13;;;;;;;17.93;13.50;;;19.40;99.90;;;;;;5081985;28;20452;-49
2022/06/25 01:00:41;;;;;;;13.70;12.47;;;19.40;99.90;;;;;;5084547;28;20579;-48
2022/06/25 01:03:07;;;;;;;16.17;13.13;;;19.40;99.90;;;;;;5087596;28;20896;-49
2022/06/25 01:05:34;;;;;;;16.73;13.13;;;19.40;99.90;;;;;;5085441;28;20879;-49
2022/06/25 01:08:01;;;;;;;17.10;13.07;;;19.40;99.90;;;;;;5086499;28;20457;-49
2022/06/25 01:10:27;;;;;;;13.70;12.30;;;19.40;99.90;;;;;;5080595;28;20452;-50
2022/06/25 01:12:54;;;;;;;14.70;13.27;;;19.40;99.90;;;;;;5081527;28;20499;-50
2022/06/25 01:15:21;;;;;;;19.73;14.23;;;19.40;99.90;;;;;;5075657;28;20480;-50
2022/06/25 01:17:50;;;;;;;14.57;13.17;;;19.40;99.90;;;;;;5080831;28;20500;-50
2022/06/25 01:20:19;;;;;;;13.70;12.40;;;19.30;99.90;;;;;;5085108;28;20519;-50
2022/06/25 01:22:47;;;;;;;14.53;13.20;;;19.30;99.90;;;;;;5090414;28;20492;-49
2022/06/25 01:25:15;;;;;;;15.53;13.50;;;19.30;99.90;;;;;;5079838;28;21025;-49
2022/06/25 01:27:42;;;;;;;16.37;13.40;;;19.30;99.90;;;;;;5089818;28;20831;-50
2022/06/25 01:30:10;;;;;;;15.70;12.67;;;19.30;99.90;;;;;;5080130;28;21048;-49
2022/06/25 01:32:37;;;;;;;13.03;11.70;;;19.30;99.90;;;;;;5088244;28;20488;-49
2022/06/25 01:35:04;;;;;;;14.40;12.33;;;19.30;99.90;;;;;;5088708;28;21476;-49
2022/06/25 01:37:32;;;;;;;13.47;12.17;;;19.20;99.90;;;;;;5085130;28;20457;-49
2022/06/25 01:40:00;;;;;;;14.47;13.17;;;19.20;99.90;;;;;;5090009;28;20480;-50
2022/06/25 01:45:12;;;;;;;14.10;12.60;;;19.20;99.90;;;;;;5078169;28;20471;-49
2022/06/25 01:47:39;;;;;;;14.40;12.23;;;19.20;99.90;;;;;;5085554;28;20543;-49
2022/06/25 01:50:07;;;;;;;19.70;14.73;;;19.10;99.90;;;;;;5081579;28;20512;-49
2022/06/25 01:52:34;;;;;;;14.63;13.23;;;19.20;99.90;;;;;;5082533;28;20958;-49
2022/06/25 01:55:02;;;;;;;17.47;12.80;;;19.20;99.90;;;;;;5083830;28;20575;-50
2022/06/25 01:57:29;;;;;;;14.70;13.20;;;19.10;99.90;;;;;;5090946;28;20482;-49
2022/06/25 01:59:55;;;;;;;13.70;12.50;;;19.10;99.90;;;;;;5087875;28;20996;-50
2022/06/25 02:02:22;;;;;;;15.77;13.30;;;19.10;99.90;;;;;;5082707;28;20453;-50
2022/06/25 02:04:48;;;;;;;16.23;14.57;;;19.10;99.90;;;;;;5088589;28;20510;-49
2022/06/25 02:07:15;;;;;;;15.70;12.87;;;19.10;99.90;;;;;;5089915;28;20490;-50
2022/06/25 02:09:42;;;;;;;13.30;12.20;;;19.10;99.90;;;;;;5087058;28;20550;-49
2022/06/25 02:12:10;;;;;;;15.53;13.97;;;19.10;99.90;;;;;;5085748;28;20531;-50
2022/06/25 02:14:36;;;;;;;15.10;12.77;;;19.00;99.90;;;;;;5087639;28;20523;-50
2022/06/25 02:17:03;;;;;;;16.83;12.93;;;19.00;99.90;;;;;;5084918;28;20485;-49
2022/06/25 02:19:30;;;;;;;14.60;13.30;;;18.90;99.90;;;;;;5083684;28;20547;-50
2022/06/25 02:21:56;;;;;;;14.87;13.50;;;18.90;99.90;;;;;;5080869;28;20579;-50
2022/06/25 02:24:23;;;;;;;15.00;12.80;;;18.90;99.90;;;;;;5083871;28;20538;-49
2022/06/25 02:26:49;;;;;;;14.77;13.40;;;18.90;99.90;;;;;;5087237;28;20488;-49
2022/06/25 02:29:17;;;;;;;16.60;13.10;;;18.90;99.90;;;;;;5089419;28;20492;-50
2022/06/25 02:31:44;;;;;;;15.13;13.40;;;18.90;99.90;;;;;;5081438;28;20456;-49
2022/06/25 02:34:11;;;;;;;17.43;14.60;;;18.90;99.90;;;;;;5086639;28;20562;-49
2022/06/25 02:36:37;;;;;;;17.10;13.60;;;18.90;99.90;;;;;;5080287;28;20472;-50
2022/06/25 02:39:04;;;;;;;14.87;13.47;;;18.80;99.90;;;;;;5085828;28;20549;-50
2022/06/25 02:41:31;;;;;;;16.33;12.20;;;18.80;99.90;;;;;;5085657;28;20534;-50
2022/06/25 02:43:57;;;;;;;13.57;12.33;;;18.80;99.90;;;;;;5082544;28;20510;-50
2022/06/25 02:46:25;;;;;;;15.60;13.73;;;18.80;99.90;;;;;;5084485;28;20510;-50
2022/06/25 02:48:52;;;;;;;14.43;12.80;;;18.80;99.90;;;;;;5080078;28;20986;-50
2022/06/25 02:51:18;;;;;;;16.30;14.10;;;18.80;99.90;;;;;;5083229;28;20892;-49
2022/06/25 02:53:45;;;;;;;14.43;13.00;;;18.70;99.90;;;;;;5079256;28;20520;-50
2022/06/25 02:58:55;;;;;;;14.73;13.30;;;18.70;99.90;;;;;;5082713;28;20521;-50
2022/06/25 03:02:06;;;;;;;18.17;13.90;;;18.70;99.90;;;;;;5079293;28;20580;-50
2022/06/25 03:04:34;;;;;;;15.40;14.10;;;18.60;99.90;;;;;;5071540;28;20568;-50
2022/06/25 03:07:01;;;;;;;14.60;13.30;;;18.60;99.90;;;;;;5083080;28;20539;-49
2022/06/25 03:09:28;;;;;;;16.33;13.40;;;18.60;99.90;;;;;;5089090;28;20460;-49
2022/06/25 03:11:54;;;;;;;16.33;14.73;;;18.60;99.90;;;;;;5087111;28;20563;-49
2022/06/25 03:14:21;;;;;;;15.43;14.03;;;18.60;99.90;;;;;;5081931;28;20548;-49
2022/06/25 03:16:47;;;;;;;15.03;13.50;;;18.50;99.90;;;;;;5088130;28;20576;-49
2022/06/25 03:19:14;;;;;;;15.93;14.40;;;18.60;99.90;;;;;;5074770;28;20555;-49
2022/06/25 03:21:44;;;;;;;16.10;14.60;;;18.50;99.90;;;;;;5077327;28;20588;-49
2022/06/25 03:24:10;;;;;;;16.03;14.10;;;18.50;99.90;;;;;;5089466;28;20484;-50
2022/06/25 03:26:37;;;;;;;19.63;14.90;;;18.50;99.90;;;;;;5087445;28;20892;-49
2022/06/25 03:29:03;;;;;;;15.97;14.47;;;18.50;99.90;;;;;;5079376;28;20491;-49
2022/06/25 03:31:30;;;;;;;17.10;13.60;;;18.50;99.90;;;;;;5083455;28;20547;-49
2022/06/25 03:33:57;;;;;;;16.90;15.40;;;18.50;99.90;;;;;;5091504;28;20492;-49
2022/06/25 03:36:23;;;;;;;18.97;15.70;;;18.50;99.90;;;;;;5085566;28;20499;-49
2022/06/25 03:38:51;;;;;;;15.97;14.63;;;18.50;99.90;;;;;;5079956;28;20480;-49
2022/06/25 03:44:02;;;;;;;16.70;15.13;;;18.50;99.90;;;;;;5078177;28;20544;-49
2022/06/25 03:46:29;;;;;;;18.20;16.30;;;18.50;99.90;;;;;;5077336;28;20511;-50
2022/06/25 03:48:56;;;;;;;17.83;15.97;;;18.50;99.90;;;;;;5083526;28;20976;-49
2022/06/25 03:51:22;;;;;;;16.00;14.00;;;18.50;99.90;;;;;;5081333;28;20919;-49
2022/06/25 03:53:51;;;;;;;17.07;14.40;;;18.50;99.90;;;;;;5087277;28;20312;-49
2022/06/25 03:56:17;;;;;;;20.60;16.30;;;18.60;99.90;;;;;;5099798;22;20554;-52
2022/06/25 03:58:44;;;;;;;16.50;15.07;;;18.50;99.90;;;;;;5090095;28;20647;-54
2022/06/25 04:01:10;;;;;;;17.07;14.43;;;18.60;99.90;;;;;;5086256;28;20559;-54
2022/06/25 04:03:37;;;;;;;16.43;14.30;;;18.60;99.90;;;;;;5086492;28;20517;-53
2022/06/25 04:06:04;;;;;;;16.70;15.00;;;18.70;99.90;;;;;;5088278;28;20557;-54
2022/06/25 04:08:30;;;;;;;16.97;15.47;;;18.70;99.90;;;;;;5085823;28;20542;-54
2022/06/25 04:10:58;;;;;;;24.53;16.60;;;18.70;99.90;;;;;;5084997;28;20551;-53
2022/06/25 04:13:25;;;;;;;18.93;17.23;;;18.80;99.90;;;;;;5087407;28;21230;-53
2022/06/25 04:15:52;;;;;;;19.47;16.10;;;18.80;99.90;;;;;;5084386;28;20564;-54
2022/06/25 04:18:19;;;;;;;17.43;15.83;;;18.80;99.90;;;;;;5091069;28;20952;-52
2022/06/25 04:20:46;;;;;;;19.40;15.97;;;18.80;99.90;;;;;;5090098;28;20924;-53
2022/06/25 04:23:12;;;;;;;25.90;15.73;;;18.90;99.90;;;;;;5083099;28;21025;-53
2022/06/25 04:25:39;;;;;;;18.13;16.33;;;18.90;99.90;;;;;;5083731;28;20567;-53
2022/06/25 04:30:52;;;;;;;21.60;18.40;;;19.00;99.90;;;;;;5086248;28;21006;-54
2022/06/25 04:33:18;;;;;;;20.17;18.10;;;19.00;99.90;;;;;;5078329;28;21001;-53
2022/06/25 04:35:45;;;;;;;21.30;19.17;;;19.00;99.90;;;;;;5087668;28;20579;-52
2022/06/25 04:38:12;;;;;;;26.13;19.10;;;19.00;99.90;;;;;;5079883;28;20452;-52
2022/06/25 04:40:38;;;;;;;21.53;19.50;;;19.10;99.90;;;;;;5082891;28;20543;-52
2022/06/25 04:43:06;;;;;;;20.70;18.67;;;19.20;99.90;;;;;;5084068;28;20908;-54
2022/06/25 04:45:33;;;;;;;22.90;20.40;;;19.20;99.90;;;;;;5085566;28;20571;-53
2022/06/25 04:48:01;;;;;;;23.93;20.17;;;19.20;99.90;;;;;;5087128;28;20472;-52
2022/06/25 04:50:28;;;;;;;22.20;19.87;;;19.20;99.90;;;;;;5079731;28;20465;-53
2022/06/25 04:52:54;;;;;;;23.60;20.23;;;19.30;99.90;;;;;;5087082;28;20525;-53
2022/06/25 04:55:21;;;;;;;28.63;20.23;;;19.30;99.70;;;;;;5088138;28;20562;-53
2022/06/25 04:57:47;;;;;;;22.87;20.57;;;19.40;99.30;;;;;;5086731;28;21077;-52
2022/06/25 05:00:16;;;;;;;23.77;21.30;;;19.40;98.80;;;;;;5077588;28;20552;-53
2022/06/25 05:02:43;;;;;;;25.80;23.03;;;19.50;98.10;;;;;;5078727;28;20539;-54
2022/06/25 05:05:10;;;;;;;23.50;20.30;;;19.50;97.90;;;;;;5082459;28;20543;-53
2022/06/25 05:07:36;;;;;;;24.63;22.03;;;19.50;96.30;;;;;;5081191;28;20495;-53
2022/06/25 05:10:04;;;;;;;23.90;21.30;;;19.60;94.00;;;;;;5084323;28;20985;-53
2022/06/25 05:15:16;;;;;;;24.43;21.83;;;19.70;93.50;;;;;;5077503;28;20834;-53
2022/06/25 05:17:42;;;;;;;24.03;21.50;;;19.70;91.30;;;;;;5086741;28;21029;-53
2022/06/25 05:20:11;;;;;;;24.37;21.77;;;19.80;89.60;;;;;;5083087;28;20941;-53
2022/06/25 05:22:38;;;;;;;25.63;22.93;;;19.90;88.30;;;;;;5088401;28;20483;-52
2022/06/25 05:25:05;;;;;;;23.43;21.33;;;19.90;87.50;;;;;;5081507;28;20501;-54
2022/06/25 05:27:32;;;;;;;26.50;22.97;;;19.90;88.40;;;;;;5094929;28;20545;-54
2022/06/25 05:29:58;;;;;;;25.27;22.53;;;20.00;87.50;;;;;;5082795;28;20576;-54
2022/06/25 05:32:26;;;;;;;24.10;21.90;;;20.10;87.50;;;;;;5083626;28;21036;-53
2022/06/25 05:34:54;;;;;;;25.77;23.03;;;20.10;89.60;;;;;;5083207;28;20551;-53
2022/06/25 05:37:21;;;;;;;23.90;21.60;;;20.10;89.20;;;;;;5084891;28;21039;-53
2022/06/25 05:39:47;;;;;;;25.13;22.50;;;20.20;90.50;;;;;;5088222;28;20981;-53
2022/06/25 05:42:14;;;;;;;24.53;21.90;;;20.20;92.10;;;;;;5087760;28;20567;-54
2022/06/25 05:44:41;;;;;;;26.23;23.50;;;20.30;92.20;;;;;;5089063;28;20486;-55
2022/06/25 05:47:07;;;;;;;28.00;21.90;;;20.30;93.70;;;;;;5085144;28;20553;-54
2022/06/25 05:49:35;;;;;;;24.67;22.10;;;20.40;93.00;;;;;;5090219;28;20460;-53
2022/06/25 05:52:02;;;;;;;25.43;21.37;;;20.50;92.30;;;;;;5077804;28;20552;-53
2022/06/25 05:54:29;;;;;;;24.60;21.57;;;20.60;93.00;;;;;;5084573;28;20523;-54
2022/06/25 05:56:55;;;;;;;28.70;22.90;;;20.70;93.50;;;;;;5082809;28;20574;-55
2022/06/25 05:59:22;;;;;;;25.60;22.80;;;20.70;96.80;;;;;;5079995;28;20455;-55
2022/06/25 06:01:48;;;;;;;24.27;21.87;;;20.80;98.20;;;;;;5074247;28;20547;-55
2022/06/25 06:04:15;;;;;;;39.13;21.80;;;20.90;99.90;;;;;;5077537;28;20498;-54
2022/06/25 06:06:43;;;;;;;26.13;23.40;;;20.90;99.90;;;;;;5087802;28;20504;-52
2022/06/25 06:09:09;;;;;;;27.97;24.90;;;20.80;99.90;;;;;;5089641;28;20539;-52
2022/06/25 06:11:36;;;;;;;25.67;22.90;;;20.90;99.90;;;;;;5087781;28;20449;-54
2022/06/25 06:14:03;;;;;;;32.00;24.60;;;20.90;99.90;;;;;;5083538;28;20544;-53
2022/06/25 06:16:29;;;;;;;27.80;23.97;;;21.00;99.90;;;;;;5083837;28;20486;-53
2022/06/25 06:18:56;;;;;;;26.47;23.70;;;21.00;99.90;;;;;;5085268;28;20510;-53
2022/06/25 06:21:22;;;;;;;28.77;23.23;;;21.00;35.90;;;;;;5086717;28;20480;-54
2022/06/25 06:23:50;;;;;;;26.97;22.57;;;21.10;31.60;;;;;;5079163;28;20544;-54
2022/06/25 06:26:17;;;;;;;24.93;22.23;;;21.10;37.30;;;;;;5083197;28;20916;-52
2022/06/25 06:28:43;;;;;;;24.23;21.93;;;21.10;39.50;;;;;;5084824;28;20468;-54
2022/06/25 06:31:10;;;;;;;25.27;22.67;;;21.20;37.10;;;;;;5081925;28;20584;-53
2022/06/25 06:33:37;;;;;;;27.30;21.73;;;21.20;37.10;;;;;;5073820;28;20958;-52
2022/06/25 06:36:04;;;;;;;28.03;22.80;;;21.10;40.60;;;;;;5077152;28;20551;-53
2022/06/25 06:38:31;;;;;;;25.10;22.50;;;21.10;50.20;;;;;;5090237;28;20879;-53
2022/06/25 06:40:59;;;;;;;30.00;22.90;;;21.10;49.20;;;;;;5078206;28;21829;-54
2022/06/25 06:43:25;;;;;;;25.80;22.70;;;21.20;46.90;;;;;;5084129;28;20582;-54
2022/06/25 06:45:52;;;;;;;25.70;22.90;;;21.20;48.80;;;;;;5094001;28;21050;-53
2022/06/25 06:48:18;;;;;;;26.57;22.97;;;21.30;47.10;;;;;;5085595;28;20551;-53
2022/06/25 06:50:45;;;;;;;29.50;23.20;;;21.40;62.00;;;;;;5087025;28;20484;-52
2022/06/25 06:53:11;;;;;;;28.10;24.10;;;21.40;79.50;;;;;;5078220;28;20893;-53
2022/06/25 06:55:38;;;;;;;23.30;20.87;;;21.40;88.30;;;;;;5084790;28;21036;-52
2022/06/25 06:58:06;;;;;;;23.40;20.80;;;21.50;99.90;;;;;;5080219;28;20542;-52
2022/06/25 07:00:32;;;;;;;23.30;20.00;;;21.60;99.90;;;;;;5087171;28;20539;-53
2022/06/25 07:02:59;;;;;;;23.53;21.23;;;21.70;99.90;;;;;;5079182;28;20552;-52
2022/06/25 07:05:25;;;;;;;22.60;20.17;;;21.70;99.90;;;;;;5087368;28;20510;-53
2022/06/25 07:07:52;;;;;;;21.00;19.00;;;21.80;99.90;;;;;;5081078;28;20559;-53
2022/06/25 07:10:20;;;;;;;17.33;15.63;;;21.80;99.90;;;;;;5080251;28;20546;-52
2022/06/25 07:12:47;;;;;;;24.40;18.03;;;21.90;99.90;;;;;;5073477;28;20449;-52
2022/06/25 07:15:15;;;;;;;25.03;19.80;;;22.00;99.90;;;;;;5075121;28;21014;-51
2022/06/25 07:17:41;;;;;;;19.00;17.10;;;22.10;99.90;;;;;;5083166;28;20586;-52
2022/06/25 07:20:09;;;;;;;19.90;18.00;;;22.10;99.90;;;;;;5084251;28;20562;-53
2022/06/25 07:22:36;;;;;;;20.33;18.23;;;22.20;99.90;;;;;;5085404;28;20515;-53
2022/06/25 07:25:03;;;;;;;22.53;17.30;;;22.20;99.90;;;;;;5078883;28;20456;-53
2022/06/25 07:27:30;;;;;;;20.20;16.30;;;22.30;99.90;;;;;;5084926;28;21586;-53
2022/06/25 07:29:56;;;;;;;18.70;17.00;;;22.30;99.90;;;;;;5083569;28;20459;-52
2022/06/25 07:32:24;;;;;;;19.90;18.03;;;22.30;99.90;;;;;;5084644;28;20594;-53
2022/06/25 07:34:50;;;;;;;23.13;17.40;;;22.30;99.90;;;;;;5086040;28;21017;-52
2022/06/25 07:37:17;;;;;;;20.10;18.07;;;22.30;99.90;;;;;;5086200;28;20479;-53
2022/06/25 07:39:44;;;;;;;22.10;19.37;;;22.30;99.90;;;;;;5087422;28;20562;-54
2022/06/25 07:42:10;;;;;;;23.60;20.20;;;22.30;99.90;;;;;;5088715;28;20511;-52
2022/06/25 07:44:37;;;;;;;21.60;19.43;;;22.30;99.90;;;;;;5082213;28;20583;-53
2022/06/25 07:47:04;;;;;;;22.27;19.83;;;22.40;99.90;;;;;;5082312;28;20476;-51
2022/06/25 07:51:56;;;;;;;21.40;19.17;;;22.40;99.90;;;;;;5087724;28;20463;-52
2022/06/25 07:52:18;;;;;;;19.93;17.97;;;22.50;99.90;;;;;;5083105;28;20460;-54
2022/06/25 07:54:45;;;;;;;20.80;18.60;;;22.60;99.90;;;;;;5087532;28;20443;-53
2022/06/25 07:57:11;;;;;;;21.30;19.33;;;22.70;99.90;;;;;;5075387;28;20324;-51
2022/06/25 07:59:38;;;;;;;23.63;20.10;;;22.70;99.90;;;;;;5084493;28;20551;-53
2022/06/25 08:02:04;;;;;;;22.10;20.00;;;22.70;99.90;;;;;;5083385;28;20558;-53
2022/06/25 08:04:32;;;;;;;20.73;18.53;;;22.80;99.90;;;;;;5082086;28;20558;-53
2022/06/25 08:06:59;;;;;;;20.90;18.90;;;22.90;99.90;;;;;;5080956;28;21052;-52
2022/06/25 08:09:25;;;;;;;22.20;19.97;;;23.00;99.90;;;;;;5083511;28;20548;-52
2022/06/25 08:11:52;;;;;;;20.53;18.60;;;23.10;47.20;;;;;;5086785;28;20468;-52
2022/06/25 08:14:20;;;;;;;21.53;19.33;;;23.20;74.90;;;;;;5085631;28;20539;-52
2022/06/25 08:16:46;;;;;;;20.77;18.70;;;23.40;63.70;;;;;;5079634;28;21199;-55
2022/06/25 08:19:13;;;;;;;22.00;18.07;;;23.50;99.90;;;;;;5087044;28;21050;-52
2022/06/25 08:21:41;;;;;;;20.20;15.20;;;23.50;94.80;;;;;;5083449;28;20487;-52
2022/06/25 08:24:07;;;;;;;18.17;16.37;;;23.50;99.90;;;;;;5082371;28;20543;-53
2022/06/25 08:26:34;;;;;;;22.30;15.10;;;23.50;99.90;;;;;;5076549;28;20596;-53
2022/06/25 08:29:01;;;;;;;17.60;15.77;;;23.50;99.90;;;;;;5076712;28;21510;-53
2022/06/25 08:31:29;;;;;;;17.30;15.50;;;23.60;99.90;;;;;;5073325;28;20831;-51
2022/06/25 08:33:55;;;;;;;19.20;17.10;;;23.60;99.90;;;;;;5085809;28;20456;-53
2022/06/25 08:36:22;;;;;;;20.27;16.20;;;23.70;99.90;;;;;;5083228;28;20511;-53
2022/06/25 08:38:50;;;;;;;17.43;15.07;;;23.70;99.90;;;;;;5082150;28;20555;-52
2022/06/25 08:41:16;;;;;;;16.90;15.00;;;23.70;99.90;;;;;;5080183;28;20487;-54
2022/06/25 08:43:43;;;;;;;17.10;15.47;;;23.80;99.90;;;;;;5077380;28;20589;-53
2022/06/25 08:46:10;;;;;;;16.57;14.77;;;23.80;99.90;;;;;;5089815;28;20572;-52
2022/06/25 08:48:37;;;;;;;15.07;13.67;;;24.00;99.90;;;;;;5090522;28;20881;-53
2022/06/25 08:51:05;;;;;;;15.53;14.07;;;24.10;99.90;;;;;;5080195;28;20567;-53
2022/06/25 08:53:33;;;;;;;16.07;14.07;;;24.20;99.90;;;;;;5088452;28;20547;-53
2022/06/25 08:56:02;;;;;;;18.67;13.70;;;24.30;99.90;;;;;;5085427;28;20579;-54
2022/06/25 08:58:29;;;;;;;17.90;14.57;;;24.40;99.90;;;;;;5086351;28;20479;-52
2022/06/25 09:00:56;;;;;;;14.17;12.37;;;24.40;99.90;;;;;;5088938;28;20578;-52
2022/06/25 09:03:22;;;;;;;21.03;15.20;;;24.50;99.90;;;;;;5078450;28;20519;-52
2022/06/25 09:05:49;;;;;;;14.20;12.83;;;24.50;99.90;;;;;;5087943;28;20480;-52
2022/06/25 09:08:17;;;;;;;14.03;12.40;;;24.50;99.90;;;;;;5088201;28;20515;-53
2022/06/25 09:10:45;;;;;;;14.93;12.03;;;24.50;99.90;;;;;;5082587;28;20508;-54
2022/06/25 09:13:14;;;;;;;12.37;11.23;;;24.50;99.90;;;;;;5084526;28;20460;-52
2022/06/25 09:15:43;;;;;;;13.07;11.87;;;24.60;99.90;;;;;;5086871;28;20558;-52
2022/06/25 09:18:11;;;;;;;13.37;12.00;;;24.60;99.90;;;;;;5084892;28;20550;-53
2022/06/25 09:20:55;;;;;;;10.90;9.77;;;24.70;99.90;;;;;;5084996;28;20543;-52
2022/06/25 09:23:23;;;;;;;12.17;11.10;;;24.70;35.50;;;;;;5081961;28;20472;-52
2022/06/25 09:26:01;;;;;;;15.67;11.70;;;24.80;22.60;;;;;;5079154;28;20607;-52
2022/06/25 09:28:33;;;;;;;12.70;11.50;;;24.80;28.40;;;;;;5075429;28;21016;-51
2022/06/25 09:31:02;;;;;;;16.97;11.40;;;24.90;29.00;;;;;;5077844;28;20470;-51
2022/06/25 09:33:29;;;;;;;11.50;10.40;;;24.90;39.90;;;;;;5081664;28;20513;-51
2022/06/25 09:35:56;;;;;;;14.73;11.00;;;24.90;45.90;;;;;;5078722;28;20981;-52
2022/06/25 09:38:24;;;;;;;11.53;10.17;;;24.90;28.10;;;;;;5081323;28;20570;-51
2022/06/25 09:40:53;;;;;;;11.23;10.10;;;24.90;33.30;;;;;;5080965;28;20513;-52
2022/06/25 09:43:21;;;;;;;11.70;10.33;;;25.00;30.30;;;;;;5077954;28;20507;-53
2022/06/25 09:45:52;;;;;;;11.40;10.30;;;25.00;39.90;;;;;;5076418;28;20908;-52
2022/06/25 09:48:20;;;;;;;13.67;9.80;;;25.00;40.50;;;;;;5077612;28;20452;-51
2022/06/25 09:51:05;;;;;;;11.37;10.27;;;25.00;45.40;;;;;;5083860;28;20452;-51
2022/06/25 09:53:32;;;;;;;12.83;11.20;;;25.00;44.10;;;;;;5079347;28;20594;-52
2022/06/25 09:56:00;;;;;;;11.10;10.20;;;25.00;40.00;;;;;;5078037;28;20571;-53
2022/06/25 09:58:27;;;;;;;12.00;11.00;;;25.00;43.00;;;;;;5081618;28;20551;-52
2022/06/25 10:00:55;;;;;;;11.37;10.27;;;25.00;52.10;;;;;;5081368;28;20542;-53
2022/06/25 10:03:22;;;;;;;10.90;9.90;;;25.10;54.70;;;;;;5086339;28;20537;-51
2022/06/25 10:05:49;;;;;;;11.50;10.37;;;25.20;47.30;;;;;;5081435;28;20483;-51
2022/06/25 10:08:18;;;;;;;12.73;10.10;;;25.20;46.60;;;;;;5078864;28;20551;-53
2022/06/25 10:10:48;;;;;;;11.20;10.20;;;25.20;66.70;;;;;;5075451;28;20470;-54
2022/06/25 10:13:16;;;;;;;11.00;9.80;;;25.20;74.00;;;;;;5078228;28;20477;-53
2022/06/25 10:15:45;;;;;;;11.83;8.60;;;25.30;73.00;;;;;;5071137;28;20476;-52
2022/06/25 10:18:13;;;;;;;9.37;8.10;;;25.30;72.70;;;;;;5062673;28;20468;-52
2022/06/25 10:20:41;;;;;;;9.00;8.20;;;25.30;79.70;;;;;;5061457;28;20523;-53
2022/06/25 10:23:10;;;;;;;8.13;7.33;;;25.30;99.90;;;;;;5060292;28;20475;-52
2022/06/25 10:25:38;;;;;;;8.87;8.17;;;25.40;99.30;;;;;;5061847;28;20511;-52
2022/06/25 10:28:10;;;;;;;12.17;8.83;;;25.40;96.70;;;;;;5067478;28;20464;-54
2022/06/25 10:30:43;;;;;;;9.17;8.27;;;25.40;95.40;;;;;;5075279;28;20456;-53
2022/06/25 10:33:10;;;;;;;9.00;8.10;;;25.40;95.70;;;;;;5072109;28;20455;-54
2022/06/25 10:35:40;;;;;;;9.97;7.17;;;25.40;94.20;;;;;;5073515;28;20579;-53
2022/06/25 10:38:08;;;;;;;8.27;6.93;;;25.40;92.20;;;;;;5082303;28;20466;-52
2022/06/25 10:40:48;;;;;;;7.77;7.17;;;25.50;94.90;;;;;;5073623;28;21028;-51
2022/06/25 10:43:36;;;;;;;8.20;6.77;;;25.50;95.90;;;;;;5075859;28;20579;-53
2022/06/25 10:46:21;;;;;;;7.77;7.00;;;25.70;96.50;;;;;;5075438;28;20563;-52
2022/06/25 10:49:06;;;;;;;8.50;7.70;;;25.80;88.70;;;;;;5073477;28;20468;-52
2022/06/25 10:51:43;;;;;;;8.37;6.80;;;26.00;94.80;;;;;;5075770;28;20467;-52
2022/06/25 10:54:14;;;;;;;8.13;7.47;;;26.20;96.00;;;;;;5081016;28;20557;-52
2022/06/25 10:56:45;;;;;;;6.57;6.07;;;26.30;99.90;;;;;;5086511;28;20590;-52
2022/06/25 10:59:45;;;;;;;11.43;6.67;;;26.40;99.90;;;;;;5075077;28;20505;-52
2022/06/25 11:02:13;;;;;;;16.33;6.80;;;26.40;99.90;;;;;;5084772;28;20668;-52
2022/06/25 11:04:48;;;;;;;8.97;6.50;;;26.30;99.90;;;;;;5093956;28;20575;-53
2022/06/25 11:07:18;;;;;;;7.30;5.70;;;26.20;99.90;;;;;;5091011;28;20480;-53
2022/06/25 11:09:53;;;;;;;7.43;6.60;;;26.10;99.90;;;;;;5084572;28;20453;-53
2022/06/25 11:12:21;;;;;;;7.50;6.80;;;26.10;99.90;;;;;;5087336;28;20455;-53
2022/06/25 11:14:50;;;;;;;14.03;6.87;;;26.20;99.90;;;;;;5091465;28;20535;-53
2022/06/25 11:17:16;;;;;;;6.93;6.30;;;26.30;99.90;;;;;;5086007;28;20562;-53
2022/06/25 11:19:43;;;;;;;6.83;6.20;;;26.40;99.90;;;;;;5086118;28;20488;-53
2022/06/25 11:22:10;;;;;;;7.40;6.80;;;26.40;99.90;;;;;;5076233;28;21190;-54
2022/06/25 11:28:47;;;;;;;6.83;6.33;;;26.40;99.90;;;;;;5083538;28;20515;-54
2022/06/25 11:30:13;;;;;;;7.70;6.10;;;26.50;99.90;;;;;;5088254;28;20451;-53
2022/06/25 11:32:44;;;;;;;6.60;5.63;;;26.50;99.90;;;;;;5089626;28;20447;-53
2022/06/25 11:35:11;;;;;;;6.23;5.63;;;26.40;99.90;;;;;;5087061;28;20487;-57
2022/06/25 11:37:37;;;;;;;6.47;5.87;;;26.50;99.90;;;;;;5086064;28;21021;-53
2022/06/25 11:40:13;;;;;;;10.63;6.33;;;26.80;99.90;;;;;;5076396;28;20544;-54
2022/06/25 11:42:39;;;;;;;6.53;6.00;;;27.10;99.90;;;;;;5078129;28;20526;-52
2022/06/25 11:45:08;;;;;;;11.07;6.27;;;26.90;99.90;;;;;;5091012;28;20571;-52
2022/06/25 11:47:36;;;;;;;6.37;5.97;;;27.00;99.90;;;;;;5078256;28;20511;-52
2022/06/25 11:50:07;;;;;;;7.50;5.67;;;27.10;99.90;;;;;;5091848;28;20484;-53
2022/06/25 11:52:34;;;;;;;6.40;5.90;;;27.30;99.90;;;;;;5082874;28;20496;-53
2022/06/25 11:55:02;;;;;;;5.40;5.00;;;27.40;99.90;;;;;;5083292;28;20544;-52
2022/06/25 11:57:34;;;;;;;5.30;4.80;;;27.50;99.90;;;;;;5081318;28;20459;-53
2022/06/25 12:00:02;;;;;;;8.17;5.60;;;27.30;99.90;;;;;;5085635;28;20982;-52
2022/06/25 12:02:28;;;;;;;5.70;4.40;;;27.40;99.90;;;;;;5088015;28;20523;-53
2022/06/25 12:04:57;;;;;;;5.93;5.33;;;27.40;99.90;;;;;;5088431;28;20549;-52
2022/06/25 12:07:25;;;;;;;5.67;5.10;;;27.20;99.90;;;;;;5091102;28;20479;-53
2022/06/25 12:09:55;;;;;;;5.30;4.80;;;27.30;99.90;;;;;;5093147;28;20884;-51
2022/06/25 12:12:23;;;;;;;12.13;5.53;;;27.30;99.90;;;;;;5091057;28;20634;-51
2022/06/25 12:14:52;;;;;;;6.13;5.73;;;27.40;99.90;;;;;;5089832;28;20547;-52
2022/06/25 12:17:19;;;;;;;5.73;5.27;;;27.40;99.90;;;;;;5084251;28;20566;-53
2022/06/25 12:19:48;;;;;;;6.23;5.40;;;27.40;99.90;;;;;;5091229;28;20555;-53
2022/06/25 12:22:22;;;;;;;10.43;5.97;;;27.30;99.90;;;;;;5086975;28;20471;-53
2022/06/25 12:24:49;;;;;;;6.93;6.00;;;27.00;99.90;;;;;;5082227;28;20554;-52
2022/06/25 12:27:16;;;;;;;5.20;4.70;;;27.00;99.90;;;;;;5089801;28;20572;-53
2022/06/25 12:29:47;;;;;;;6.57;5.93;;;27.00;99.90;;;;;;5082721;28;20546;-53
2022/06/25 12:32:14;;;;;;;5.47;4.93;;;26.90;99.90;;;;;;5082891;28;20489;-53
2022/06/25 12:34:47;;;;;;;6.10;5.50;;;26.80;99.90;;;;;;5093400;28;20543;-53
2022/06/25 12:37:27;;;;;;;6.57;5.30;;;26.80;99.90;;;;;;5092670;28;20506;-52
2022/06/25 12:39:57;;;;;;;8.90;5.67;;;26.80;99.90;;;;;;5092319;28;20487;-52
2022/06/25 12:42:24;;;;;;;6.13;5.47;;;26.80;99.90;;;;;;5089180;28;20460;-52
2022/06/25 12:44:52;;;;;;;5.43;4.90;;;26.70;99.90;;;;;;5087339;28;20530;-53
2022/06/25 12:47:19;;;;;;;5.50;5.00;;;26.70;99.90;;;;;;5082031;28;20488;-52
2022/06/25 12:49:49;;;;;;;7.23;5.50;;;26.80;99.90;;;;;;5091399;28;20492;-52
2022/06/25 12:52:19;;;;;;;5.13;4.57;;;26.80;99.90;;;;;;5084853;28;20492;-51
2022/06/25 12:54:49;;;;;;;5.40;4.93;;;27.00;99.90;;;;;;5085512;28;20562;-53